createdAt,value
2023-02-09T07:57:50.121Z,23.13
2023-02-09T08:00:19.468Z,24.42
2023-02-09T08:02:48.914Z,25.45
2023-02-09T08:05:48.494Z,26.70
2023-02-09T08:08:15.965Z,26.83
2023-02-09T08:10:43.874Z,27.33
2023-02-09T08:13:12.335Z,25.17
2023-02-09T08:15:55.547Z,27.30
2023-02-09T08:18:36.021Z,27.50
2023-02-09T08:21:08.006Z,25.42
2023-02-09T08:23:37.582Z,25.67
2023-02-09T08:26:13.339Z,26.75
2023-02-09T08:28:44.951Z,27.75
2023-02-09T08:31:19.672Z,27.85
2023-02-09T08:33:50.447Z,27.10
2023-02-09T08:36:20.724Z,29.25
2023-02-09T08:38:48.346Z,27.92
2023-02-09T08:41:18.337Z,27.80
2023-02-09T08:43:52.305Z,27.73
2023-02-09T08:46:20.102Z,28.13
2023-02-09T08:48:47.850Z,26.95
2023-02-09T08:51:17.670Z,27.63
2023-02-09T08:53:52.275Z,27.73
2023-02-09T08:56:22.639Z,29.90
2023-02-09T08:58:50.858Z,29.27
2023-02-09T09:01:18.850Z,27.73
2023-02-09T09:03:46.441Z,28.38
2023-02-09T09:06:13.955Z,28.77
2023-02-09T09:08:41.375Z,27.90
2023-02-09T09:11:13.016Z,28.92
2023-02-09T09:13:41.856Z,27.92
2023-02-09T09:16:20.143Z,27.77
2023-02-09T09:18:48.340Z,28.20
2023-02-09T09:21:18.996Z,28.55
2023-02-09T09:23:47.577Z,28.42
2023-02-09T09:26:17.272Z,27.92
2023-02-09T09:28:48.802Z,19.98
2023-02-09T09:31:18.656Z,27.33
2023-02-09T09:33:46.845Z,21.83
2023-02-09T09:36:17.316Z,29.13
2023-02-09T09:41:38.006Z,28.88
2023-02-09T09:44:35.302Z,27.55
2023-02-09T09:47:18.243Z,28.13
2023-02-09T09:49:46.170Z,27.70
2023-02-09T09:52:40.226Z,28.40
2023-02-09T09:55:20.863Z,28.63
2023-02-09T10:00:37.696Z,28.67
2023-02-09T10:03:22.775Z,30.20
2023-02-09T10:06:12.216Z,29.63
2023-02-09T10:09:06.991Z,28.67
2023-02-09T10:11:54.964Z,29.10
2023-02-09T10:14:23.710Z,27.30
2023-02-09T10:16:51.187Z,27.95
2023-02-09T10:19:29.171Z,28.30
2023-02-09T10:21:57.114Z,29.40
2023-02-09T10:24:34.328Z,27.23
2023-02-09T10:27:08.256Z,30.00
2023-02-09T10:29:36.382Z,29.52
2023-02-09T10:32:40.737Z,29.25
2023-02-09T10:35:41.569Z,28.02
2023-02-09T10:38:23.145Z,29.25
2023-02-09T10:40:51.030Z,29.08
2023-02-09T10:43:34.667Z,28.92
2023-02-09T10:46:16.452Z,28.98
2023-02-09T10:48:47.267Z,29.77
2023-02-09T10:51:31.350Z,28.25
2023-02-09T10:54:08.148Z,29.35
2023-02-09T10:56:48.961Z,29.13
2023-02-09T10:59:25.445Z,29.38
2023-02-09T11:02:02.055Z,29.48
2023-02-09T11:04:41.393Z,29.35
2023-02-09T11:07:20.422Z,30.38
2023-02-09T11:09:51.768Z,29.95
2023-02-09T11:12:22.964Z,28.92
2023-02-09T11:14:50.480Z,29.70
2023-02-09T11:17:40.072Z,29.77
2023-02-09T11:20:35.799Z,28.45
2023-02-09T11:23:47.218Z,26.95
2023-02-09T11:26:55.069Z,26.88
2023-02-09T11:29:50.022Z,27.10
2023-02-09T11:32:44.112Z,26.00
2023-02-09T11:35:19.965Z,26.42
2023-02-09T11:38:10.833Z,24.67
2023-02-09T11:40:52.610Z,26.20
2023-02-09T11:43:41.123Z,24.70
2023-02-09T11:46:22.193Z,26.00
2023-02-09T11:49:16.319Z,27.15
2023-02-09T11:51:46.112Z,26.98
2023-02-09T11:54:23.042Z,24.77
2023-02-09T11:57:01.121Z,23.67
2023-02-09T11:59:56.396Z,21.38
2023-02-09T12:02:53.509Z,20.98
2023-02-09T12:05:22.717Z,19.45
2023-02-09T12:08:55.953Z,18.35
2023-02-09T12:12:16.145Z,17.23
2023-02-09T12:15:22.679Z,19.38
2023-02-09T12:18:12.821Z,18.98
2023-02-09T12:20:57.851Z,18.42
2023-02-09T12:23:39.317Z,19.10
2023-02-09T12:26:15.264Z,19.17
2023-02-09T12:28:52.213Z,17.13
2023-02-09T12:31:28.125Z,18.38
2023-02-09T12:33:58.436Z,17.27
2023-02-09T12:36:35.384Z,14.88
2023-02-09T12:39:25.798Z,15.52
2023-02-09T12:41:56.087Z,16.58
2023-02-09T12:44:23.127Z,15.70
2023-02-09T12:46:56.809Z,16.30
2023-02-09T12:49:33.296Z,17.17
2023-02-09T12:52:03.516Z,16.23
2023-02-09T12:54:57.967Z,15.02
2023-02-09T12:57:26.090Z,16.55
2023-02-09T12:59:53.215Z,15.10
2023-02-09T13:02:50.599Z,13.82
2023-02-09T13:05:44.874Z,13.25
2023-02-09T13:08:22.594Z,13.10
2023-02-09T13:11:53.137Z,12.75
2023-02-09T13:14:22.375Z,13.02
2023-02-09T13:17:08.492Z,13.43
2023-02-09T13:21:04.512Z,12.27
2023-02-09T13:24:19.293Z,12.02
2023-02-09T13:26:57.946Z,13.00
2023-02-09T13:29:33.482Z,13.38
2023-02-09T13:32:16.347Z,13.45
2023-02-09T13:35:27.204Z,13.90
2023-02-09T13:40:34.839Z,12.52
2023-02-09T13:43:11.055Z,13.82
2023-02-09T13:45:51.804Z,14.60
2023-02-09T13:48:39.064Z,14.95
2023-02-09T13:51:20.309Z,14.23
2023-02-09T13:54:02.941Z,14.38
2023-02-09T13:56:34.672Z,15.52
2023-02-09T13:59:02.082Z,14.25
2023-02-09T14:01:36.355Z,14.30
2023-02-09T14:04:26.248Z,15.05
2023-02-09T14:07:10.532Z,13.63
2023-02-09T14:10:14.174Z,14.45
2023-02-09T14:13:10.024Z,14.35
2023-02-09T14:16:04.561Z,14.00
2023-02-09T14:18:52.101Z,14.40
2023-02-09T14:21:45.572Z,14.27
2023-02-09T14:24:23.815Z,15.35
2023-02-09T14:27:16.530Z,13.80
2023-02-09T14:29:49.134Z,14.57
2023-02-09T14:32:42.981Z,14.27
2023-02-09T14:35:26.028Z,13.43
2023-02-09T14:37:58.871Z,14.68
2023-02-09T14:40:30.827Z,15.02
2023-02-09T14:43:19.853Z,13.82
2023-02-09T14:45:59.847Z,14.60
2023-02-09T14:48:31.200Z,14.32
2023-02-09T14:51:13.168Z,15.25
2023-02-09T14:53:43.100Z,15.13
2023-02-09T14:56:31.727Z,14.02
2023-02-09T14:58:59.119Z,14.35
2023-02-09T15:01:26.603Z,14.13
2023-02-09T15:03:53.968Z,14.50
2023-02-09T15:06:21.533Z,14.13
2023-02-09T15:08:48.982Z,15.02
2023-02-09T15:11:42.677Z,14.57
2023-02-09T15:14:11.315Z,15.10
2023-02-09T15:16:38.778Z,14.00
2023-02-09T15:19:16.411Z,13.77
2023-02-09T15:21:43.709Z,14.68
2023-02-09T15:24:11.042Z,14.27
2023-02-09T15:26:38.748Z,13.85
2023-02-09T15:29:16.378Z,14.98
2023-02-09T15:31:43.835Z,14.73
2023-02-09T15:34:17.229Z,13.20
2023-02-09T15:37:00.116Z,14.10
2023-02-09T15:39:34.946Z,14.15
2023-02-09T15:42:21.484Z,14.15
2023-02-09T15:45:08.139Z,13.77
2023-02-09T15:47:52.777Z,14.32
2023-02-09T15:50:20.227Z,13.13
2023-02-09T15:52:47.909Z,13.95
2023-02-09T15:55:21.352Z,14.48
2023-02-09T15:57:52.583Z,12.65
2023-02-09T16:00:26.427Z,13.23
2023-02-09T16:02:58.690Z,13.48
2023-02-09T16:05:30.209Z,13.82
2023-02-09T16:07:59.115Z,14.48
2023-02-09T16:10:30.200Z,14.20
2023-02-09T16:12:58.554Z,12.82
2023-02-09T16:15:27.440Z,13.48
2023-02-09T16:17:54.830Z,12.77
2023-02-09T16:20:23.718Z,12.70
2023-02-09T16:22:57.442Z,13.70
2023-02-09T16:25:27.113Z,13.27
2023-02-09T16:27:56.647Z,13.90
2023-02-09T16:30:34.761Z,13.02
2023-02-09T16:33:02.066Z,12.93
2023-02-09T16:35:31.379Z,13.20
2023-02-09T16:37:59.296Z,12.95
2023-02-09T16:40:32.463Z,13.52
2023-02-09T16:43:01.857Z,12.27
2023-02-09T16:45:35.157Z,13.30
2023-02-09T16:48:02.924Z,13.27
2023-02-09T16:50:39.924Z,13.68
2023-02-09T16:53:36.361Z,13.45
2023-02-09T16:56:10.317Z,13.85
2023-02-09T16:58:39.613Z,13.50
2023-02-09T17:01:25.182Z,13.32
2023-02-09T17:03:56.850Z,15.05
2023-02-09T17:06:29.330Z,13.95
2023-02-09T17:08:56.731Z,13.75
2023-02-09T17:11:28.288Z,14.02
2023-02-09T17:13:55.818Z,13.35
2023-02-09T17:16:39.213Z,13.38
2023-02-09T17:19:15.830Z,15.93
2023-02-09T17:21:43.348Z,16.00
2023-02-09T17:24:17.259Z,15.90
2023-02-09T17:26:44.938Z,16.65
2023-02-09T17:29:12.351Z,18.38
2023-02-09T17:31:52.946Z,17.60
2023-02-09T17:34:26.965Z,17.90
2023-02-09T17:36:58.650Z,16.73
2023-02-09T17:39:26.050Z,17.45
2023-02-09T17:41:53.571Z,17.83
2023-02-09T17:44:44.612Z,17.90
2023-02-09T17:47:19.980Z,17.42
2023-02-09T17:49:47.724Z,18.30
2023-02-09T17:52:21.027Z,17.38
2023-02-09T17:54:49.400Z,18.45
2023-02-09T17:57:18.109Z,19.10
2023-02-09T17:59:46.820Z,18.23
2023-02-09T18:02:20.503Z,19.25
2023-02-09T18:04:47.831Z,17.10
2023-02-09T18:07:20.404Z,18.23
2023-02-09T18:09:47.970Z,18.35
2023-02-09T18:12:26.598Z,18.30
2023-02-09T18:14:54.885Z,18.70
2023-02-09T18:17:22.233Z,18.35
2023-02-09T18:19:49.660Z,18.10
2023-02-09T18:22:17.901Z,17.90
2023-02-09T18:24:45.712Z,18.60
2023-02-09T18:27:25.490Z,18.17
2023-02-09T18:29:53.080Z,16.57
2023-02-09T18:32:23.825Z,16.48
2023-02-09T18:34:51.135Z,19.13
2023-02-09T18:37:18.533Z,17.85
2023-02-09T18:39:46.713Z,18.48
2023-02-09T18:42:16.523Z,19.25
2023-02-09T18:44:43.959Z,18.53
2023-02-09T18:47:11.483Z,20.10
2023-02-09T18:49:39.309Z,18.92
2023-02-09T18:52:08.386Z,19.00
2023-02-09T18:54:36.150Z,19.38
2023-02-09T18:57:03.521Z,18.58
2023-02-09T18:59:32.430Z,19.35
2023-02-09T19:02:01.166Z,20.58
2023-02-09T19:04:28.845Z,19.60
2023-02-09T19:06:56.186Z,20.30
2023-02-09T19:09:23.519Z,18.08
2023-02-09T19:11:50.839Z,18.83
2023-02-09T19:14:36.713Z,17.73
2023-02-09T19:17:08.255Z,20.23
2023-02-09T19:19:35.761Z,19.30
2023-02-09T19:22:03.179Z,18.42
2023-02-09T19:24:30.641Z,19.90
2023-02-09T19:26:58.079Z,19.40
2023-02-09T19:29:25.768Z,20.88
2023-02-09T19:31:55.665Z,20.58
2023-02-09T19:34:23.775Z,20.98
2023-02-09T19:36:51.502Z,21.00
2023-02-09T19:39:19.310Z,21.08
2023-02-09T19:41:48.975Z,18.83
2023-02-09T19:44:16.451Z,19.10
2023-02-09T19:46:43.910Z,21.75
2023-02-09T19:49:11.378Z,21.45
2023-02-09T19:51:38.719Z,20.60
2023-02-09T19:54:06.091Z,19.95
2023-02-09T19:56:33.381Z,21.20
2023-02-09T19:59:01.253Z,20.52
2023-02-09T20:01:31.344Z,20.40
2023-02-09T20:03:58.983Z,21.45
2023-02-09T20:06:26.470Z,19.60
2023-02-09T20:08:53.755Z,21.35
2023-02-09T20:11:21.898Z,20.50
2023-02-09T20:13:54.470Z,21.45
2023-02-09T20:16:27.440Z,18.75
2023-02-09T20:18:55.112Z,19.33
2023-02-09T20:21:25.836Z,19.52
2023-02-09T20:23:57.734Z,18.85
2023-02-09T20:26:30.119Z,17.92
2023-02-09T20:28:58.614Z,19.00
2023-02-09T20:31:36.761Z,19.25
2023-02-09T20:34:09.296Z,17.42
2023-02-09T20:36:42.064Z,19.02
2023-02-09T20:39:15.872Z,17.48
2023-02-09T20:42:06.910Z,18.70
2023-02-09T20:44:53.955Z,18.85
2023-02-09T20:47:21.257Z,19.55
2023-02-09T20:49:48.746Z,17.77
2023-02-09T20:52:16.415Z,18.92
2023-02-09T20:54:43.725Z,18.30
2023-02-09T20:57:11.023Z,16.92
2023-02-09T20:59:46.823Z,18.10
2023-02-09T21:02:16.050Z,18.05
2023-02-09T21:04:43.545Z,17.90
2023-02-09T21:07:13.529Z,18.98
2023-02-09T21:09:40.837Z,18.27
2023-02-09T21:12:08.561Z,18.00
2023-02-09T21:14:43.909Z,17.88
2023-02-09T21:17:11.881Z,18.42
2023-02-09T21:19:40.643Z,19.45
2023-02-09T21:22:08.375Z,17.92
2023-02-09T21:24:38.959Z,18.98
